Time;durP1;ratioP1;P1;durP2;ratioP2;P2;SDS_P1;SDS_P2;PMS_P1;PMS_P2;Temp;Humidity;BMP_temperature;BMP_pressure;BME280_temperature;BME280_humidity;BME280_pressure;Samples;Min_cycle;Max_cycle;Signal;HPM_P1;HPM_P2
2022/01/01 00:02:18;;;;;;;;;94.00;89.20;20.90;99.90;;;;;;5059317;28;8889;-69
2022/01/01 00:04:45;;;;;;;;;98.40;90.40;20.80;99.90;;;;;;5058455;28;9387;-70
2022/01/01 00:07:12;;;;;;;;;88.80;83.60;20.70;99.90;;;;;;5059696;28;8816;-70
2022/01/01 00:09:39;;;;;;;;;93.60;87.60;20.70;99.90;;;;;;5059530;28;8770;-70
2022/01/01 00:12:06;;;;;;;;;108.80;95.00;20.60;99.90;;;;;;5059620;28;8754;-70
2022/01/01 00:14:36;;;;;;;;;110.00;97.80;20.60;99.90;;;;;;5049612;28;8746;-69
2022/01/01 00:17:03;;;;;;;;;120.80;110.40;20.60;99.90;;;;;;5058873;28;8766;-70
2022/01/01 00:19:33;;;;;;;;;119.20;104.40;20.80;99.90;;;;;;5074393;28;8718;-69
2022/01/01 00:22:00;;;;;;;;;122.20;110.40;20.90;99.90;;;;;;5059976;28;8730;-70
2022/01/01 00:24:27;;;;;;;;;123.40;108.40;21.00;99.90;;;;;;5050454;28;8745;-69
2022/01/01 00:26:53;;;;;;;;;122.80;108.60;21.00;99.90;;;;;;5041329;28;8780;-69
2022/01/01 00:29:20;;;;;;;;;116.40;106.40;21.00;99.90;;;;;;5059260;28;8742;-69
2022/01/01 00:31:47;;;;;;;;;120.40;110.00;21.10;99.90;;;;;;5058038;28;8769;-69
2022/01/01 00:34:13;;;;;;;;;123.00;107.40;21.10;99.90;;;;;;5058639;28;9434;-69
2022/01/01 00:36:40;;;;;;;;;115.00;106.20;21.10;99.90;;;;;;5058935;28;8745;-69
2022/01/01 00:39:07;;;;;;;;;119.00;105.00;21.20;99.90;;;;;;5057751;28;8710;-70
2022/01/01 00:41:34;;;;;;;;;113.80;98.40;21.20;99.90;;;;;;5058884;28;8752;-69
2022/01/01 00:44:00;;;;;;;;;100.60;91.20;21.10;99.90;;;;;;5059065;28;8730;-70
2022/01/01 00:46:27;;;;;;;;;109.20;97.20;21.10;99.90;;;;;;5057469;28;8726;-69
2022/01/01 00:48:54;;;;;;;;;104.80;93.00;21.10;99.90;;;;;;5057595;28;9370;-69
2022/01/01 00:51:21;;;;;;;;;107.20;91.80;21.20;99.90;;;;;;5057786;28;9426;-69
2022/01/01 00:53:48;;;;;;;;;96.80;88.80;21.30;99.90;;;;;;5059112;28;8758;-69
2022/01/01 00:56:15;;;;;;;;;93.40;83.80;21.30;99.90;;;;;;5074392;28;8816;-69
2022/01/01 00:58:41;;;;;;;;;89.00;75.20;21.40;99.90;;;;;;5059033;28;8805;-69
2022/01/01 01:01:08;;;;;;;;;89.00;80.40;21.40;99.90;;;;;;5059427;28;8776;-67
2022/01/01 01:03:35;;;;;;;;;92.00;83.20;21.30;99.90;;;;;;5059048;28;8817;-69
2022/01/01 01:06:01;;;;;;;;;89.20;81.60;21.40;99.90;;;;;;5058648;28;8776;-70
2022/01/01 01:08:30;;;;;;;;;92.20;84.00;21.60;99.90;;;;;;5058218;28;8786;-69
2022/01/01 01:10:57;;;;;;;;;85.40;78.20;21.70;99.90;;;;;;5058112;28;8773;-69
2022/01/01 01:13:26;;;;;;;;;98.00;80.40;21.90;99.90;;;;;;5058923;28;8738;-69
2022/01/01 01:15:53;;;;;;;;;104.00;81.40;22.00;99.90;;;;;;5058581;28;8749;-69
2022/01/01 01:18:20;;;;;;;;;95.60;83.80;22.00;99.90;;;;;;5058080;28;8855;-68
2022/01/01 01:20:47;;;;;;;;;78.40;68.20;22.10;99.90;;;;;;5057241;28;8876;-70
2022/01/01 01:23:13;;;;;;;;;89.80;68.80;22.10;99.90;;;;;;5058118;28;9029;-69
2022/01/01 01:25:41;;;;;;;;;79.00;69.00;22.10;99.90;;;;;;5057846;28;9022;-69
2022/01/01 01:28:11;;;;;;;;;78.20;66.20;22.20;99.90;;;;;;5057346;28;8881;-70
2022/01/01 01:30:39;;;;;;;;;88.60;70.40;22.20;99.90;;;;;;5057802;28;8762;-70
2022/01/01 01:33:06;;;;;;;;;77.60;65.20;22.10;99.90;;;;;;5057961;28;8820;-71
2022/01/01 01:35:33;;;;;;;;;73.20;62.40;22.20;99.90;;;;;;5057576;28;8916;-70
2022/01/01 01:38:00;;;;;;;;;81.20;71.20;22.10;99.90;;;;;;5057831;28;8762;-70
2022/01/01 01:40:26;;;;;;;;;78.20;64.20;22.10;99.90;;;;;;5056445;28;8745;-69
2022/01/01 01:42:53;;;;;;;;;75.20;62.80;22.10;99.90;;;;;;5058533;28;8776;-70
2022/01/01 01:45:22;;;;;;;;;81.80;71.20;22.00;99.90;;;;;;5057555;28;8778;-70
2022/01/01 01:47:49;;;;;;;;;76.00;64.40;22.10;99.90;;;;;;5056120;28;8855;-70
2022/01/01 01:50:17;;;;;;;;;78.60;68.80;22.20;99.90;;;;;;5057572;28;8769;-70
2022/01/01 01:52:52;;;;;;;;;77.00;68.40;22.30;99.90;;;;;;5057502;28;8745;-70
2022/01/01 01:55:18;;;;;;;;;80.60;71.60;22.40;99.90;;;;;;5057920;28;8801;-68
2022/01/01 01:57:45;;;;;;;;;76.80;65.20;22.40;99.90;;;;;;5057600;28;8758;-70
2022/01/01 02:02:55;;;;;;;;;78.60;60.00;22.50;99.90;;;;;;5057438;28;9075;-71
2022/01/01 02:05:23;;;;;;;;;70.80;62.00;22.40;99.90;;;;;;5057377;28;8758;-69
2022/01/01 02:07:50;;;;;;;;;79.20;64.00;22.40;99.90;;;;;;5057275;28;10046;-70
2022/01/01 02:10:17;;;;;;;;;74.40;61.80;22.60;99.90;;;;;;5055983;28;8745;-69
2022/01/01 02:12:50;;;;;;;;;77.60;60.20;22.70;99.90;;;;;;5057113;28;9375;-69
2022/01/01 02:18:23;;;;;;;;;72.00;57.25;23.20;99.90;;;;;;5018510;28;9511;-69
2022/01/01 02:20:50;;;;;;;;;75.25;60.00;23.30;99.90;;;;;;5037527;28;8787;-70
2022/01/01 02:23:17;;;;;;;;;76.75;58.00;23.20;99.90;;;;;;5037112;28;9401;-67
2022/01/01 02:25:44;;;;;;;;;75.25;59.50;23.50;99.90;;;;;;5037055;28;8748;-68
2022/01/01 02:28:13;;;;;;;;;77.20;59.00;23.40;99.90;;;;;;5036137;28;8788;-69
2022/01/01 02:30:40;;;;;;;;;72.60;56.80;23.70;99.90;;;;;;5036931;28;8748;-69
2022/01/01 02:33:07;;;;;;;;;73.60;55.60;23.80;99.90;;;;;;5047725;28;8851;-69
2022/01/01 02:35:33;;;;;;;;;68.00;54.50;23.80;99.90;;;;;;5056604;28;8754;-69
2022/01/01 02:38:00;;;;;;;;;67.25;54.00;23.90;99.90;;;;;;5056483;28;8774;-69
2022/01/01 02:40:27;;;;;;;;;64.75;53.25;23.90;99.90;;;;;;5056319;28;8787;-69
2022/01/01 02:42:55;;;;;;;;;70.75;55.00;23.80;99.90;;;;;;5057537;28;8750;-70
2022/01/01 02:45:21;;;;;;;;;69.50;56.00;23.70;99.90;;;;;;5056537;28;8737;-69
2022/01/01 02:47:48;;;;;;;;;68.25;53.25;23.90;99.90;;;;;;5056402;28;8818;-70
2022/01/01 02:50:18;;;;;;;;;65.00;52.00;24.10;99.90;;;;;;5056450;28;8765;-68
2022/01/01 02:52:47;;;;;;;;;67.40;53.20;24.00;99.90;;;;;;5055337;28;8797;-69
2022/01/01 02:55:14;;;;;;;;;70.80;52.40;24.10;99.90;;;;;;5057445;28;8811;-69
2022/01/01 02:57:40;;;;;;;;;72.00;57.00;24.20;99.90;;;;;;5055147;28;8722;-70
2022/01/01 03:00:08;;;;;;;;;61.50;47.25;24.30;99.90;;;;;;5055367;28;8877;-70
2022/01/01 03:02:34;;;;;;;;;56.25;45.25;24.40;99.90;;;;;;5056119;28;8798;-70
2022/01/01 03:05:01;;;;;;;;;58.50;47.75;24.40;99.90;;;;;;5056616;28;8827;-70
2022/01/01 03:07:28;;;;;;;;;67.25;51.25;24.30;99.90;;;;;;5055561;28;9592;-70
2022/01/01 03:09:54;;;;;;;;;69.75;54.50;24.40;99.90;;;;;;5056744;28;8804;-70
2022/01/01 03:12:21;;;;;;;;;66.25;49.50;24.50;99.90;;;;;;5056272;28;8749;-70
2022/01/01 03:14:48;;;;;;;;;66.00;50.50;24.40;99.90;;;;;;5055272;28;8754;-69
2022/01/01 03:17:14;;;;;;;;;65.00;51.50;24.40;99.90;;;;;;5056667;28;8762;-69
2022/01/01 03:19:41;;;;;;;;;66.25;52.75;24.60;99.90;;;;;;5056407;28;9050;-69
2022/01/01 03:22:08;;;;;;;;;63.50;49.25;24.80;99.90;;;;;;5055855;28;8737;-69
2022/01/01 03:24:34;;;;;;;;;66.60;52.00;24.60;99.90;;;;;;5056380;28;9472;-70
2022/01/01 03:27:02;;;;;;;;;64.80;51.00;24.70;99.90;;;;;;5056287;28;8750;-69
2022/01/01 03:29:30;;;;;;;;;51.00;44.00;24.80;99.90;;;;;;5056129;28;8734;-69
2022/01/01 03:31:57;;;;;;;;;67.50;52.50;25.00;99.90;;;;;;5056162;28;8844;-70
2022/01/01 03:34:24;;;;;;;;;63.50;49.25;25.20;99.90;;;;;;5055338;28;8706;-69
2022/01/01 03:36:50;;;;;;;;;62.00;48.00;25.40;99.90;;;;;;5056778;28;8726;-70
2022/01/01 03:39:17;;;;;;;;;62.25;48.75;25.50;99.90;;;;;;5071547;28;8746;-68
2022/01/01 03:41:44;;;;;;;;;62.75;48.50;25.60;99.90;;;;;;5056168;28;9976;-70
2022/01/01 03:44:10;;;;;;;;;61.50;46.75;25.80;99.90;;;;;;5056275;28;8765;-69
2022/01/01 03:46:37;;;;;;;;;59.00;47.75;25.70;99.90;;;;;;5055714;28;8810;-70
2022/01/01 03:49:04;;;;;;;;;58.75;46.75;25.80;99.90;;;;;;5054641;28;8821;-69
2022/01/01 03:51:31;;;;;;;;;38.00;33.25;25.90;99.90;;;;;;5057839;28;9414;-70
2022/01/01 03:53:57;;;;;;;;;49.00;38.75;26.00;99.90;;;;;;5058838;28;8782;-69
2022/01/01 03:56:24;;;;;;;;;50.25;40.50;26.10;99.90;;;;;;5059664;28;8860;-70
2022/01/01 03:58:51;;;;;;;;;49.50;37.75;26.00;99.90;;;;;;5059906;28;8765;-69
2022/01/01 04:01:17;;;;;;;;;48.75;39.00;26.20;99.90;;;;;;5060525;28;8788;-68
2022/01/01 04:03:44;;;;;;;;;50.50;41.25;26.30;99.90;;;;;;5059760;28;8762;-69
2022/01/01 04:06:11;;;;;;;;;48.25;39.25;26.20;99.90;;;;;;5060214;28;8742;-69
2022/01/01 04:08:37;;;;;;;;;52.75;41.75;26.50;99.90;;;;;;5059379;28;8781;-70
2022/01/01 04:11:07;;;;;;;;;50.25;41.50;26.70;99.90;;;;;;5058276;28;8761;-69
2022/01/01 04:13:34;;;;;;;;;53.50;43.25;26.80;99.90;;;;;;5074438;28;8804;-70
2022/01/01 04:16:01;;;;;;;;;54.00;42.75;26.90;99.90;;;;;;5066001;28;8768;-70
2022/01/01 04:18:38;;;;;;;;;43.25;35.50;26.80;99.90;;;;;;5074495;28;8781;-69
2022/01/01 04:21:08;;;;;;;;;46.50;37.75;26.70;99.90;;;;;;5059663;28;8784;-69
2022/01/01 04:23:35;;;;;;;;;45.00;37.25;26.80;99.90;;;;;;5059307;28;8778;-70
2022/01/01 04:26:02;;;;;;;;;47.25;37.25;27.00;99.90;;;;;;5059454;28;8754;-69
2022/01/01 04:28:29;;;;;;;;;46.50;36.75;26.90;99.90;;;;;;5057809;28;8847;-71
2022/01/01 04:30:56;;;;;;;;;46.75;38.75;26.90;99.90;;;;;;5059832;28;8770;-69
2022/01/01 04:33:22;;;;;;;;;48.25;39.25;26.80;99.90;;;;;;5057311;28;8799;-70
2022/01/01 04:35:49;;;;;;;;;51.25;42.25;26.80;99.90;;;;;;5059318;28;8805;-69
2022/01/01 04:41:02;;;;;;;;;44.75;37.25;26.90;99.90;;;;;;5059151;28;8868;-70
2022/01/01 04:43:28;;;;;;;;;43.50;35.50;27.20;99.90;;;;;;5058888;28;8726;-70
2022/01/01 04:45:55;;;;;;;;;42.25;34.50;27.30;99.90;;;;;;5059640;28;8742;-70
2022/01/01 04:48:22;;;;;;;;;42.50;33.50;27.30;99.90;;;;;;5058285;28;9478;-69
2022/01/01 04:50:48;;;;;;;;;44.00;36.00;27.20;99.90;;;;;;5058768;28;8864;-69
2022/01/01 04:53:17;;;;;;;;;37.50;33.75;27.30;99.90;;;;;;5058753;28;8785;-71
2022/01/01 04:55:45;;;;;;;;;45.75;37.00;27.50;99.90;;;;;;5058405;28;8730;-69
2022/01/01 04:58:12;;;;;;;;;46.50;38.25;27.50;99.90;;;;;;5059214;28;8749;-69
2022/01/01 05:00:39;;;;;;;;;46.25;38.25;27.60;99.90;;;;;;5058603;28;8745;-69
2022/01/01 05:03:05;;;;;;;;;40.25;36.00;27.90;99.90;;;;;;5058169;28;8793;-70
2022/01/01 05:05:32;;;;;;;;;45.50;36.75;27.80;99.90;;;;;;5058427;28;8808;-69
2022/01/01 05:07:59;;;;;;;;;41.50;35.00;27.60;99.70;;;;;;5058461;28;8838;-70
2022/01/01 05:10:25;;;;;;;;;37.00;32.00;27.60;99.90;;;;;;5058479;28;8761;-68
2022/01/01 05:12:52;;;;;;;;;42.25;36.00;27.60;99.20;;;;;;5057824;28;8758;-69
2022/01/01 05:15:22;;;;;;;;;40.25;33.00;27.40;99.50;;;;;;5056726;28;8749;-68
2022/01/01 05:17:49;;;;;;;;;39.00;35.25;27.20;99.90;;;;;;5058022;28;8781;-70
2022/01/01 05:20:15;;;;;;;;;36.00;31.25;27.10;99.90;;;;;;5058119;28;8893;-70
2022/01/01 05:22:42;;;;;;;;;39.00;34.00;27.20;99.60;;;;;;5056736;28;8718;-70
2022/01/01 05:25:09;;;;;;;;;37.50;30.75;27.30;99.90;;;;;;5058561;28;8802;-69
2022/01/01 05:27:36;;;;;;;;;39.75;31.50;27.40;98.90;;;;;;5057655;28;8820;-69
2022/01/01 05:30:04;;;;;;;;;34.75;32.00;27.20;99.00;;;;;;5058221;28;8746;-69
2022/01/01 05:32:31;;;;;;;;;30.50;29.75;27.40;99.10;;;;;;5057814;28;8793;-69
2022/01/01 05:34:58;;;;;;;;;32.50;31.75;27.60;97.90;;;;;;5058173;28;8761;-70
2022/01/01 05:37:25;;;;;;;;;33.00;29.25;27.80;98.20;;;;;;5057767;28;8758;-64
2022/01/01 05:39:51;;;;;;;;;34.00;30.75;27.90;97.80;;;;;;5058296;28;9505;-69
2022/01/01 05:42:18;;;;;;;;;28.75;28.50;28.00;97.10;;;;;;5057616;28;8734;-68
2022/01/01 05:44:45;;;;;;;;;32.75;29.50;28.10;97.00;;;;;;5057955;28;8734;-70
2022/01/01 05:47:11;;;;;;;;;35.50;30.75;28.20;97.30;;;;;;5057407;28;8790;-70
2022/01/01 05:49:38;;;;;;;;;34.00;30.00;28.10;97.10;;;;;;5055788;28;8758;-69
2022/01/01 05:52:05;;;;;;;;;32.50;30.50;27.90;97.50;;;;;;5058092;28;8777;-69
2022/01/01 05:54:31;;;;;;;;;27.50;27.25;27.70;97.90;;;;;;5055952;28;8738;-70
2022/01/01 05:56:59;;;;;;;;;26.75;25.25;27.90;96.60;;;;;;5057636;28;8742;-70
2022/01/01 05:59:26;;;;;;;;;31.75;29.25;28.10;96.40;;;;;;5057499;28;8852;-69
2022/01/01 06:01:53;;;;;;;;;32.00;29.00;28.10;96.10;;;;;;5057653;28;8764;-69
2022/01/01 06:04:22;;;;;;;;;31.00;28.00;28.20;95.80;;;;;;5057960;28;8804;-68
2022/01/01 06:06:49;;;;;;;;;26.00;24.40;28.30;95.70;;;;;;5057271;28;9469;-69
2022/01/01 06:09:15;;;;;;;;;29.25;25.75;28.50;95.20;;;;;;5057260;28;8786;-69
2022/01/01 06:11:42;;;;;;;;;33.00;25.80;28.60;95.10;;;;;;5057165;28;8769;-69
2022/01/01 06:14:09;;;;;;;;;22.80;22.80;28.80;94.90;;;;;;5056953;28;8754;-68
2022/01/01 06:16:35;;;;;;;;;26.40;23.00;28.90;95.10;;;;;;5056887;28;8761;-66
2022/01/01 06:19:02;;;;;;;;;26.40;25.40;28.90;94.60;;;;;;5058187;28;8897;-68
2022/01/01 06:21:29;;;;;;;;;21.50;20.50;28.90;94.40;;;;;;5056570;28;8778;-68
2022/01/01 06:23:55;;;;;;;;;24.00;22.00;28.90;94.40;;;;;;5056130;28;8774;-68
2022/01/01 06:26:22;;;;;;;;;23.25;20.75;29.00;94.20;;;;;;5056668;28;8773;-68
2022/01/01 06:28:49;;;;;;;;;22.25;21.75;29.10;93.60;;;;;;5039079;28;8762;-68
2022/01/01 06:31:15;;;;;;;;;24.75;24.25;29.00;93.50;;;;;;5057535;28;8746;-69
2022/01/01 06:33:42;;;;;;;;;23.20;23.20;29.10;93.20;;;;;;5057230;28;9013;-69
2022/01/01 06:36:12;;;;;;;;;23.20;20.80;29.10;92.70;;;;;;5057062;28;8815;-69
2022/01/01 06:38:42;;;;;;;;;27.00;24.60;29.00;93.10;;;;;;5056771;28;8877;-68
2022/01/01 06:41:09;;;;;;;;;23.75;23.00;28.80;93.20;;;;;;5057029;28;8750;-69
2022/01/01 06:43:35;;;;;;;;;26.25;23.25;29.00;93.10;;;;;;5056549;28;8749;-69
2022/01/01 06:46:02;;;;;;;;;22.00;22.00;29.10;93.10;;;;;;5057660;28;8746;-69
2022/01/01 06:48:29;;;;;;;;;27.00;25.50;29.10;93.00;;;;;;5056134;28;8830;-69
2022/01/01 06:50:56;;;;;;;;;24.75;20.25;29.00;93.40;;;;;;5056617;28;8777;-69
2022/01/01 06:53:22;;;;;;;;;26.60;23.60;29.00;93.20;;;;;;5056522;28;8757;-69
2022/01/01 06:55:49;;;;;;;;;25.50;22.00;29.20;93.00;;;;;;5056779;28;9398;-69
2022/01/01 06:58:16;;;;;;;;;24.20;23.40;29.10;93.00;;;;;;5057188;28;8771;-68
2022/01/01 07:00:42;;;;;;;;;29.60;24.60;29.20;92.80;;;;;;5056674;28;8861;-69
2022/01/01 07:03:09;;;;;;;;;23.80;22.40;29.20;92.40;;;;;;5056297;28;8742;-69
2022/01/01 07:05:36;;;;;;;;;27.20;23.80;29.40;92.70;;;;;;5056491;28;8844;-69
2022/01/01 07:08:02;;;;;;;;;24.75;23.25;29.60;91.90;;;;;;5056697;28;9407;-69
2022/01/01 07:10:29;;;;;;;;;21.00;19.00;29.50;92.00;;;;;;5055022;28;8730;-68
2022/01/01 07:12:56;;;;;;;;;24.00;24.00;29.40;91.60;;;;;;5057301;28;8820;-69
2022/01/01 07:15:22;;;;;;;;;22.50;21.75;29.30;91.70;;;;;;5056114;28;8738;-69
2022/01/01 07:17:49;;;;;;;;;23.75;22.50;28.60;92.60;;;;;;5056329;28;8766;-68
2022/01/01 07:20:16;;;;;;;;;29.50;24.50;28.70;92.90;;;;;;5055332;28;9887;-69
2022/01/01 07:22:44;;;;;;;;;25.00;20.50;29.00;92.40;;;;;;5056317;28;8751;-68
2022/01/01 07:25:11;;;;;;;;;28.25;24.50;29.30;92.00;;;;;;5041127;28;8799;-69
2022/01/01 07:27:38;;;;;;;;;23.50;22.50;29.30;91.10;;;;;;5048874;28;8834;-68
2022/01/01 07:30:09;;;;;;;;;27.00;25.75;29.30;91.20;;;;;;5060235;28;8734;-69
2022/01/01 07:32:46;;;;;;;;;25.00;24.60;29.50;91.20;;;;;;5059873;28;8803;-69
2022/01/01 07:35:13;;;;;;;;;25.00;23.75;29.50;91.10;;;;;;5059084;28;8773;-70
2022/01/01 07:37:40;;;;;;;;;25.00;23.50;29.40;90.80;;;;;;5058806;28;8749;-69
2022/01/01 07:40:08;;;;;;;;;25.75;25.75;29.00;91.00;;;;;;5059273;28;8718;-69
2022/01/01 07:42:35;;;;;;;;;27.00;26.50;29.00;91.00;;;;;;5059738;28;8836;-69
2022/01/01 07:45:02;;;;;;;;;24.00;24.00;29.10;91.10;;;;;;5060280;28;8753;-69
2022/01/01 07:47:28;;;;;;;;;29.75;25.25;28.90;91.40;;;;;;5059080;28;8809;-68
2022/01/01 07:49:55;;;;;;;;;24.00;23.25;28.90;91.40;;;;;;5060073;28;8872;-69
2022/01/01 07:52:22;;;;;;;;;22.20;22.20;29.10;91.50;;;;;;5060406;28;8750;-68
2022/01/01 07:54:48;;;;;;;;;25.00;25.00;29.30;91.50;;;;;;5059980;28;8737;-69
2022/01/01 07:57:15;;;;;;;;;22.60;21.00;29.50;91.30;;;;;;5041814;28;8765;-70
2022/01/01 07:59:42;;;;;;;;;27.25;27.25;29.50;90.90;;;;;;5059699;28;8730;-69
2022/01/01 08:02:09;;;;;;;;;20.50;20.00;29.60;91.20;;;;;;5059327;28;8806;-69
2022/01/01 08:04:35;;;;;;;;;25.20;24.60;29.60;91.10;;;;;;5059487;28;8824;-69
2022/01/01 08:07:02;;;;;;;;;26.60;26.60;29.50;91.20;;;;;;5060163;28;8745;-69
2022/01/01 08:09:29;;;;;;;;;25.00;25.00;29.30;91.00;;;;;;5059436;28;8883;-68
2022/01/01 08:11:56;;;;;;;;;28.20;26.40;29.30;91.10;;;;;;5059409;28;8838;-68
2022/01/01 08:14:23;;;;;;;;;26.75;24.25;29.50;90.90;;;;;;5058968;28;9442;-68
2022/01/01 08:17:02;;;;;;;;;27.75;23.50;29.50;91.00;;;;;;5059596;28;8754;-68
2022/01/01 08:19:29;;;;;;;;;26.25;24.50;29.60;90.30;;;;;;5059010;28;8754;-68
2022/01/01 08:21:56;;;;;;;;;28.00;27.00;29.70;90.20;;;;;;5059781;28;8758;-68
2022/01/01 08:24:22;;;;;;;;;28.50;26.25;29.80;89.70;;;;;;5059370;28;9398;-68
2022/01/01 08:26:49;;;;;;;;;27.25;25.25;29.90;90.00;;;;;;5059169;28;8876;-69
2022/01/01 08:29:16;;;;;;;;;25.00;24.60;29.90;89.70;;;;;;5041247;28;10071;-67
2022/01/01 08:31:43;;;;;;;;;24.75;23.00;29.90;90.10;;;;;;5059479;28;8880;-69
2022/01/01 08:34:10;;;;;;;;;28.50;25.75;30.00;89.50;;;;;;5059706;28;8750;-69
2022/01/01 08:36:37;;;;;;;;;27.75;25.25;29.80;90.20;;;;;;5058376;28;8785;-69
2022/01/01 08:39:05;;;;;;;;;24.75;24.75;29.70;90.00;;;;;;5058978;28;8769;-70
2022/01/01 08:41:32;;;;;;;;;26.50;24.75;29.60;90.00;;;;;;5058974;28;8750;-68
2022/01/01 08:43:59;;;;;;;;;25.75;23.50;29.60;90.00;;;;;;5059105;28;9470;-69
2022/01/01 08:46:25;;;;;;;;;23.75;23.75;29.60;89.80;;;;;;5058564;28;8742;-68
2022/01/01 08:48:52;;;;;;;;;23.50;23.50;29.70;89.90;;;;;;5058899;28;8876;-69
2022/01/01 08:51:20;;;;;;;;;26.50;24.50;29.80;88.80;;;;;;5058378;28;8816;-68
2022/01/01 08:53:47;;;;;;;;;29.25;27.75;29.80;90.10;;;;;;5058900;28;8769;-69
2022/01/01 08:56:14;;;;;;;;;29.50;28.00;29.80;90.40;;;;;;5058606;28;8789;-69
2022/01/01 08:58:41;;;;;;;;;27.00;26.00;29.60;89.80;;;;;;5057434;28;8833;-69
2022/01/01 09:01:08;;;;;;;;;23.50;21.00;29.60;89.90;;;;;;5059233;28;8754;-69
2022/01/01 09:03:37;;;;;;;;;26.00;24.50;29.70;90.00;;;;;;5058233;28;8805;-69
2022/01/01 09:06:05;;;;;;;;;28.00;24.75;29.70;90.20;;;;;;5057876;28;8797;-70
2022/01/01 09:08:36;;;;;;;;;23.25;20.50;29.70;90.20;;;;;;5057132;28;8786;-69
2022/01/01 09:11:03;;;;;;;;;25.00;23.00;29.70;90.40;;;;;;5058420;28;8777;-70
2022/01/01 09:13:29;;;;;;;;;24.25;22.25;29.80;89.60;;;;;;5058056;28;9876;-69
2022/01/01 09:15:56;;;;;;;;;29.00;28.25;29.80;88.60;;;;;;5059040;28;8778;-69
2022/01/01 09:18:23;;;;;;;;;27.50;26.50;29.80;88.60;;;;;;5058180;28;8811;-68
2022/01/01 09:20:50;;;;;;;;;26.50;24.75;29.80;89.40;;;;;;5058187;28;8852;-69
2022/01/01 09:23:17;;;;;;;;;30.00;25.25;29.80;89.30;;;;;;5058494;28;8770;-69
2022/01/01 09:25:43;;;;;;;;;27.25;25.25;29.80;89.60;;;;;;5058041;28;9387;-69
2022/01/01 09:28:10;;;;;;;;;28.00;25.50;29.80;89.30;;;;;;5057250;28;8766;-69
2022/01/01 09:30:37;;;;;;;;;31.50;29.00;29.70;88.50;;;;;;5057662;28;8785;-69
2022/01/01 09:33:04;;;;;;;;;25.50;25.50;29.60;88.30;;;;;;5057818;28;8867;-69
2022/01/01 09:35:30;;;;;;;;;28.50;28.00;29.60;89.80;;;;;;5058064;28;8792;-69
2022/01/01 09:37:57;;;;;;;;;29.00;28.25;29.50;90.50;;;;;;5058088;28;8754;-69
2022/01/01 09:40:25;;;;;;;;;29.75;29.00;29.40;90.30;;;;;;5058232;28;8796;-68
2022/01/01 09:42:52;;;;;;;;;31.50;29.25;29.40;91.00;;;;;;5057244;28;8746;-69
2022/01/01 09:45:18;;;;;;;;;30.50;28.25;29.30;91.00;;;;;;5039722;28;8798;-67
2022/01/01 09:47:45;;;;;;;;;27.50;25.50;29.20;91.00;;;;;;5039510;28;8875;-69
2022/01/01 09:50:12;;;;;;;;;27.25;25.25;29.20;90.80;;;;;;5057519;28;8750;-69
2022/01/01 09:52:39;;;;;;;;;32.50;29.25;29.20;90.90;;;;;;5057626;28;8757;-68
2022/01/01 09:55:06;;;;;;;;;25.75;24.75;29.10;90.90;;;;;;5058169;28;8866;-68
2022/01/01 09:57:33;;;;;;;;;27.75;25.00;29.10;90.90;;;;;;5057839;28;8754;-68
2022/01/01 10:00:00;;;;;;;;;31.00;27.50;29.00;91.50;;;;;;5056583;28;8764;-69
2022/01/01 10:02:26;;;;;;;;;31.75;29.50;28.90;91.20;;;;;;5057401;28;8748;-68
2022/01/01 10:04:53;;;;;;;;;33.75;29.00;28.90;91.90;;;;;;5057854;28;8757;-69
2022/01/01 10:07:29;;;;;;;;;27.75;27.25;28.90;90.80;;;;;;5073459;28;8738;-68
2022/01/01 10:09:56;;;;;;;;;33.00;30.50;29.00;91.70;;;;;;5058030;28;8758;-70
2022/01/01 10:12:38;;;;;;;;;33.00;29.00;29.00;91.80;;;;;;5057406;28;9422;-68
2022/01/01 10:15:08;;;;;;;;;33.75;32.00;28.90;92.30;;;;;;5057512;28;8757;-69
2022/01/01 10:17:34;;;;;;;;;36.25;31.25;28.90;92.20;;;;;;5055797;28;8779;-70
2022/01/01 10:20:01;;;;;;;;;36.75;33.25;28.90;92.70;;;;;;5056418;28;8872;-69
2022/01/01 10:22:28;;;;;;;;;33.00;31.75;29.00;92.60;;;;;;5055899;28;8729;-69
2022/01/01 10:28:08;;;;;;;;;36.25;33.00;28.80;92.90;;;;;;5057661;28;8793;-70
2022/01/01 10:30:39;;;;;;;;;37.00;33.00;28.70;93.10;;;;;;5055920;28;8733;-69
2022/01/01 10:33:17;;;;;;;;;32.50;28.50;28.60;93.30;;;;;;5057297;28;8730;-70
2022/01/01 10:35:46;;;;;;;;;32.50;29.75;28.50;93.20;;;;;;5057560;28;8734;-69
2022/01/01 10:38:20;;;;;;;;;34.50;31.25;28.50;93.50;;;;;;5055807;28;8750;-70
2022/01/01 10:40:47;;;;;;;;;41.50;36.00;28.40;94.10;;;;;;5056215;28;8860;-70
2022/01/01 10:43:17;;;;;;;;;41.50;35.00;28.30;94.80;;;;;;5058058;28;8744;-69
2022/01/01 10:45:48;;;;;;;;;39.00;35.00;28.30;95.30;;;;;;5057274;28;8758;-70
2022/01/01 10:50:52;;;;;;;;;43.25;35.00;28.00;96.40;;;;;;5057023;28;8750;-70
2022/01/01 10:53:26;;;;;;;;;41.75;34.25;27.90;96.20;;;;;;5055460;28;8773;-69
2022/01/01 10:56:00;;;;;;;;;35.75;32.50;27.80;96.00;;;;;;5056728;28;8777;-69
2022/01/01 10:58:31;;;;;;;;;43.50;36.50;27.70;95.90;;;;;;5056580;28;8774;-68
2022/01/01 11:01:03;;;;;;;;;42.25;33.75;27.50;96.40;;;;;;5057346;28;8734;-69
2022/01/01 11:03:29;;;;;;;;;44.75;37.25;27.50;96.40;;;;;;5039420;28;8734;-69
2022/01/01 11:06:08;;;;;;;;;43.75;38.50;27.40;96.50;;;;;;5039362;28;8835;-69
2022/01/01 11:08:35;;;;;;;;;47.25;39.00;27.40;96.80;;;;;;5072204;28;8809;-69
2022/01/01 11:11:03;;;;;;;;;52.00;42.25;27.20;97.40;;;;;;5057056;28;9516;-69
2022/01/01 11:13:33;;;;;;;;;51.00;42.75;27.20;98.20;;;;;;5055673;28;8722;-71
2022/01/01 11:15:59;;;;;;;;;50.75;41.50;27.10;98.80;;;;;;5057244;28;8769;-69
2022/01/01 11:18:26;;;;;;;;;54.00;42.00;26.90;98.60;;;;;;5055294;28;8742;-69
2022/01/01 11:20:53;;;;;;;;;50.25;42.00;26.90;97.70;;;;;;5056372;28;9481;-69
2022/01/01 11:23:20;;;;;;;;;44.50;38.00;26.90;97.60;;;;;;5056808;28;8842;-67
2022/01/01 11:25:47;;;;;;;;;48.75;40.50;26.90;97.60;;;;;;5055445;28;9442;-70
2022/01/01 11:28:16;;;;;;;;;50.50;41.75;26.70;97.90;;;;;;5057113;28;9432;-71
2022/01/01 11:30:59;;;;;;;;;47.25;37.75;26.70;98.00;;;;;;5056617;28;8757;-70
2022/01/01 11:33:32;;;;;;;;;55.25;42.25;26.70;98.20;;;;;;5056548;28;8730;-70
2022/01/01 11:35:59;;;;;;;;;52.25;43.50;26.70;99.00;;;;;;5057108;28;9170;-71
2022/01/01 11:38:27;;;;;;;;;66.00;52.00;26.70;98.90;;;;;;5056555;28;8761;-71
2022/01/01 11:41:04;;;;;;;;;53.50;44.00;26.70;98.90;;;;;;5055434;28;8749;-70
2022/01/01 11:43:36;;;;;;;;;69.60;52.60;26.60;99.60;;;;;;5056141;28;8856;-70
2022/01/01 11:46:20;;;;;;;;;69.60;54.20;26.50;99.40;;;;;;5057370;28;8730;-70
2022/01/01 11:49:04;;;;;;;;;70.00;54.40;26.40;99.50;;;;;;5056474;28;8859;-70
2022/01/01 11:51:45;;;;;;;;;69.40;52.40;26.40;99.60;;;;;;5056475;28;8864;-71
2022/01/01 11:54:15;;;;;;;;;64.25;51.25;26.40;99.70;;;;;;5056889;28;8758;-70
2022/01/01 11:56:50;;;;;;;;;74.40;56.60;26.30;99.80;;;;;;5056836;28;8753;-70
2022/01/01 11:59:38;;;;;;;;;75.00;58.40;26.20;99.90;;;;;;5056474;28;8897;-69
2022/01/01 12:02:20;;;;;;;;;69.20;55.60;26.10;99.90;;;;;;5056462;28;8785;-70
2022/01/01 12:04:50;;;;;;;;;64.80;51.60;26.00;99.90;;;;;;5056609;28;8768;-70
2022/01/01 12:07:20;;;;;;;;;72.40;54.40;26.00;99.90;;;;;;5056765;28;8835;-70
2022/01/01 12:10:02;;;;;;;;;72.20;56.00;26.10;99.90;;;;;;5055937;28;8836;-70
2022/01/01 12:12:38;;;;;;;;;67.60;52.00;26.10;99.90;;;;;;5057849;28;8762;-70
2022/01/01 12:15:06;;;;;;;;;70.40;53.80;26.10;99.90;;;;;;5075493;28;8758;-70
2022/01/01 12:17:46;;;;;;;;;67.80;53.60;26.00;99.90;;;;;;5059479;28;8758;-70
2022/01/01 12:20:21;;;;;;;;;61.00;47.80;26.00;99.90;;;;;;5058515;28;8765;-70
2022/01/01 12:22:47;;;;;;;;;70.80;53.60;26.00;99.90;;;;;;5058599;28;8765;-71
2022/01/01 12:25:18;;;;;;;;;66.25;51.25;26.00;99.90;;;;;;5060118;28;8754;-71
2022/01/01 12:27:50;;;;;;;;;68.25;53.25;25.90;99.90;;;;;;5059283;28;8754;-70
2022/01/01 12:30:34;;;;;;;;;71.40;57.60;25.90;99.90;;;;;;5059151;28;8780;-69
2022/01/01 12:33:04;;;;;;;;;73.80;59.80;25.80;99.90;;;;;;5058004;28;8876;-70
2022/01/01 12:35:42;;;;;;;;;72.00;58.00;25.70;99.90;;;;;;5058321;28;8846;-70
2022/01/01 12:38:09;;;;;;;;;78.00;66.60;25.60;99.90;;;;;;5050881;28;8781;-70
2022/01/01 12:40:39;;;;;;;;;76.60;62.00;25.60;99.90;;;;;;5058508;28;9082;-69
2022/01/01 12:43:15;;;;;;;;;74.80;64.00;25.60;99.90;;;;;;5059285;28;8738;-70
2022/01/01 12:45:42;;;;;;;;;97.00;85.00;25.50;99.90;;;;;;5058409;28;8777;-70
2022/01/01 12:48:09;;;;;;;;;72.40;59.60;25.50;99.90;;;;;;5022811;28;8813;-70
2022/01/01 12:50:35;;;;;;;;;82.60;72.60;25.40;99.90;;;;;;5058564;28;8802;-70
2022/01/01 12:53:02;;;;;;;;;79.60;66.00;25.40;99.90;;;;;;5058680;28;8892;-70
2022/01/01 12:55:29;;;;;;;;;77.40;66.80;25.30;99.90;;;;;;5058651;28;8734;-70